createdAt,value
2018-12-13T00:01:40.501Z,12.10
2018-12-13T00:06:45.598Z,12.00
2018-12-13T00:11:51.868Z,11.90
2018-12-13T00:22:12.219Z,11.80
2018-12-13T00:27:17.284Z,11.90
2018-12-13T00:32:22.753Z,11.80
2018-12-13T00:37:28.412Z,11.80
2018-12-13T00:42:34.458Z,11.80
2018-12-13T00:47:41.144Z,11.90
2018-12-13T00:52:46.142Z,12.00
2018-12-13T00:57:52.578Z,12.00
2018-12-13T01:02:57.671Z,12.00
2018-12-13T01:08:02.602Z,12.00
2018-12-13T01:13:09.586Z,11.80
2018-12-13T01:18:14.496Z,11.80
2018-12-13T01:23:29.950Z,11.70
2018-12-13T01:28:38.435Z,11.80
2018-12-13T01:33:51.268Z,11.70
2018-12-13T01:38:56.350Z,11.80
2018-12-13T01:44:05.277Z,11.70
2018-12-13T01:49:10.435Z,11.60
2018-12-13T01:54:16.230Z,11.70
2018-12-13T01:59:22.279Z,11.70
2018-12-13T02:04:28.595Z,11.60
2018-12-13T02:09:33.593Z,11.50
2018-12-13T02:14:40.106Z,11.50
2018-12-13T02:19:44.959Z,11.60
2018-12-13T02:24:50.833Z,11.60
2018-12-13T02:29:55.727Z,11.70
2018-12-13T02:35:02.173Z,11.70
2018-12-13T02:40:08.445Z,11.60
2018-12-13T02:45:13.444Z,11.60
2018-12-13T02:50:20.143Z,11.50
2018-12-13T02:55:25.332Z,11.50
2018-12-13T03:00:31.505Z,11.50
2018-12-13T03:05:38.327Z,11.30
2018-12-13T03:10:43.350Z,11.10
2018-12-13T03:15:50.350Z,11.20
2018-12-13T03:20:55.326Z,11.60
2018-12-13T03:26:01.103Z,11.90
2018-12-13T03:31:05.957Z,12.00
2018-12-13T03:36:11.986Z,12.20
2018-12-13T03:41:18.555Z,12.20
2018-12-13T03:46:23.431Z,12.30
2018-12-13T03:51:29.744Z,12.20
2018-12-13T03:56:34.559Z,11.80
2018-12-13T04:01:41.046Z,11.70
2018-12-13T04:06:46.013Z,11.70
2018-12-13T04:11:52.539Z,11.50
2018-12-13T04:16:58.628Z,11.50
2018-12-13T04:22:03.545Z,11.40
2018-12-13T04:27:09.750Z,11.40
2018-12-13T04:32:14.758Z,11.30
2018-12-13T04:37:21.171Z,11.10
2018-12-13T04:42:26.000Z,11.10
2018-12-13T04:47:32.211Z,11.40
2018-12-13T04:52:38.346Z,11.40
2018-12-13T04:57:43.380Z,11.60
2018-12-13T05:02:50.166Z,11.40
2018-12-13T05:07:55.103Z,11.50
2018-12-13T05:18:15.482Z,11.40
2018-12-13T05:23:21.338Z,11.30
2018-12-13T05:28:26.257Z,11.30
2018-12-13T05:33:32.213Z,11.20
2018-12-13T05:38:38.334Z,11.20
2018-12-13T05:43:43.139Z,11.30
2018-12-13T05:48:49.392Z,11.60
2018-12-13T05:53:54.298Z,11.50
2018-12-13T05:59:01.135Z,11.30
2018-12-13T06:04:05.978Z,11.30
2018-12-13T06:09:11.924Z,11.30
2018-12-13T06:14:18.569Z,11.20
2018-12-13T06:19:26.667Z,11.20
2018-12-13T06:24:31.682Z,11.30
2018-12-13T06:29:41.780Z,11.30
2018-12-13T06:34:45.334Z,11.40
2018-12-13T06:39:52.161Z,11.40
2018-12-13T06:44:58.343Z,11.50
2018-12-13T06:50:03.444Z,11.60
2018-12-13T06:55:09.259Z,11.50
2018-12-13T07:00:14.193Z,11.60
2018-12-13T07:05:21.031Z,11.60
2018-12-13T07:10:26.038Z,11.80
2018-12-13T07:15:32.034Z,11.70
2018-12-13T07:20:38.520Z,11.70
2018-12-13T07:25:43.492Z,11.60
2018-12-13T07:30:49.659Z,11.70
2018-12-13T07:35:54.609Z,11.80
2018-12-13T07:41:01.109Z,11.60
2018-12-13T07:46:06.041Z,11.50
2018-12-13T07:51:11.394Z,11.50
2018-12-13T07:56:18.308Z,11.90
2018-12-13T08:01:23.219Z,11.80
2018-12-13T08:06:28.425Z,11.90
2018-12-13T08:11:33.267Z,12.10
2018-12-13T08:16:39.119Z,12.10
2018-12-13T08:21:45.913Z,12.10
2018-12-13T08:26:52.662Z,12.40
2018-12-13T08:31:58.581Z,12.50
2018-12-13T08:37:03.966Z,12.70
2018-12-13T08:42:09.814Z,12.70
2018-12-13T08:47:14.748Z,12.70
2018-12-13T08:52:21.484Z,12.70
2018-12-13T08:57:28.414Z,12.80
2018-12-13T09:02:33.258Z,12.80
2018-12-13T09:07:38.970Z,12.70
2018-12-13T09:12:44.175Z,12.60
2018-12-13T09:17:49.352Z,12.60
2018-12-13T09:22:54.526Z,12.60
2018-12-13T09:28:01.071Z,12.70
2018-12-13T09:33:06.017Z,12.60
2018-12-13T09:38:12.078Z,12.50
2018-12-13T09:43:18.400Z,12.40
2018-12-13T09:48:24.871Z,12.30
2018-12-13T09:53:31.006Z,12.20
2018-12-13T09:58:36.037Z,12.30
2018-12-13T10:03:42.407Z,12.20
2018-12-13T10:08:48.415Z,12.10
2018-12-13T10:13:53.451Z,12.30
2018-12-13T10:18:59.748Z,12.50
2018-12-13T10:24:04.659Z,12.60
2018-12-13T10:29:10.332Z,12.60
2018-12-13T10:34:15.204Z,12.70
2018-12-13T10:39:21.207Z,12.70
2018-12-13T10:44:31.192Z,12.70
2018-12-13T10:49:36.189Z,12.80
2018-12-13T10:54:42.100Z,12.80
2018-12-13T10:59:47.231Z,12.80
2018-12-13T11:04:52.548Z,12.70
2018-12-13T11:09:58.563Z,12.70
2018-12-13T11:15:05.574Z,12.70
2018-12-13T11:20:12.880Z,12.60
2018-12-13T11:25:21.576Z,12.50
2018-12-13T11:30:28.950Z,12.50
2018-12-13T11:35:33.856Z,12.50
2018-12-13T11:40:39.038Z,12.40
2018-12-13T11:45:43.990Z,12.60
2018-12-13T11:50:49.249Z,12.20
2018-12-13T11:55:54.260Z,11.90
2018-12-13T12:01:01.095Z,11.60
2018-12-13T12:06:06.148Z,11.40
2018-12-13T12:11:12.384Z,11.40
2018-12-13T12:16:18.430Z,11.40
2018-12-13T12:21:23.471Z,11.60
2018-12-13T12:26:28.801Z,11.70
2018-12-13T12:31:33.831Z,11.90
2018-12-13T12:36:39.774Z,11.90
2018-12-13T12:41:45.711Z,11.90
2018-12-13T12:46:52.526Z,11.90
2018-12-13T12:51:58.651Z,11.80
2018-12-13T12:57:03.843Z,11.90
2018-12-13T13:02:09.645Z,11.90
2018-12-13T13:07:14.573Z,11.80
2018-12-13T13:12:21.105Z,11.80
2018-12-13T13:17:26.360Z,11.80
2018-12-13T13:22:31.902Z,11.80
2018-12-13T13:27:38.375Z,11.70
2018-12-13T13:32:43.332Z,11.90
2018-12-13T13:37:49.202Z,11.80
2018-12-13T13:42:54.151Z,11.80
2018-12-13T13:48:00.995Z,11.70
2018-12-13T13:53:05.898Z,11.70
2018-12-13T13:58:12.048Z,11.70
2018-12-13T14:03:18.380Z,11.70
2018-12-13T14:08:25.519Z,11.60
2018-12-13T14:13:32.083Z,11.60
2018-12-13T14:18:39.045Z,11.50
2018-12-13T14:23:43.915Z,11.50
2018-12-13T14:28:50.058Z,11.60
2018-12-13T14:33:55.292Z,11.60
2018-12-13T14:39:01.146Z,11.40
2018-12-13T14:44:06.046Z,11.30
2018-12-13T14:49:12.101Z,11.40
2018-12-13T14:54:18.316Z,11.10
2018-12-13T14:59:23.251Z,11.20
2018-12-13T15:04:29.520Z,11.20
2018-12-13T15:09:35.343Z,11.20
2018-12-13T15:14:41.035Z,11.10
2018-12-13T15:19:46.208Z,11.20
2018-12-13T15:24:52.461Z,11.30
2018-12-13T15:29:58.477Z,11.30
2018-12-13T15:35:05.252Z,11.10
2018-12-13T15:40:11.750Z,11.10
2018-12-13T15:45:19.634Z,11.10
2018-12-13T15:50:25.446Z,11.30
2018-12-13T15:55:36.190Z,11.10
2018-12-13T16:00:41.939Z,11.20
2018-12-13T16:05:48.496Z,11.20
2018-12-13T16:10:53.513Z,11.30
2018-12-13T16:21:12.097Z,11.30
2018-12-13T16:26:18.475Z,11.40
2018-12-13T16:31:25.213Z,11.40
2018-12-13T16:36:31.085Z,11.20
2018-12-13T16:41:35.889Z,11.20
2018-12-13T16:46:42.192Z,11.20
2018-12-13T16:51:48.513Z,11.10
2018-12-13T16:56:54.077Z,11.10
2018-12-13T17:01:59.833Z,11.10
2018-12-13T17:07:04.772Z,11.00
2018-12-13T17:12:10.487Z,11.00
2018-12-13T17:17:15.362Z,11.00
2018-12-13T17:22:21.023Z,11.10
2018-12-13T17:27:26.134Z,11.20
2018-12-13T17:32:32.480Z,11.20
2018-12-13T17:37:37.679Z,11.20
2018-12-13T17:42:42.634Z,11.20
2018-12-13T17:47:48.474Z,11.10
2018-12-13T17:52:53.603Z,11.00
2018-12-13T17:57:59.934Z,11.00
2018-12-13T18:03:05.025Z,11.00
2018-12-13T18:08:11.210Z,11.00
2018-12-13T18:13:16.019Z,10.90
2018-12-13T18:18:22.343Z,10.90
2018-12-13T18:23:28.357Z,10.80
2018-12-13T18:28:33.300Z,10.70
2018-12-13T18:33:39.719Z,10.70
2018-12-13T18:38:44.849Z,10.50
2018-12-13T18:43:51.407Z,10.40
2018-12-13T18:48:58.343Z,10.40
2018-12-13T18:54:03.470Z,10.30
2018-12-13T18:59:09.705Z,10.30
2018-12-13T19:04:14.770Z,10.40
2018-12-13T19:09:21.496Z,10.30
2018-12-13T19:14:28.257Z,10.20
2018-12-13T19:19:33.199Z,10.10
2018-12-13T19:24:39.643Z,10.20
2018-12-13T19:29:44.563Z,10.30
2018-12-13T19:34:50.572Z,10.30
2018-12-13T19:39:55.596Z,10.20
2018-12-13T19:45:02.646Z,10.20
2018-12-13T19:50:09.756Z,10.40
2018-12-13T19:55:14.914Z,10.40
2018-12-13T20:00:20.387Z,10.40
2018-12-13T20:05:25.491Z,10.60
2018-12-13T20:10:31.170Z,10.80
2018-12-13T20:15:36.043Z,11.00
2018-12-13T20:20:42.288Z,11.00
2018-12-13T20:25:48.562Z,10.70
2018-12-13T20:30:53.945Z,10.80
2018-12-13T20:36:01.652Z,10.80
2018-12-13T20:41:08.546Z,11.00
2018-12-13T20:46:14.455Z,11.20
2018-12-13T20:51:19.360Z,11.30
2018-12-13T20:56:24.435Z,11.30
2018-12-13T21:01:31.050Z,11.30
2018-12-13T21:06:36.071Z,11.30
2018-12-13T21:11:42.096Z,11.00
2018-12-13T21:16:48.791Z,10.70
2018-12-13T21:21:53.904Z,10.50
2018-12-13T21:26:59.753Z,10.50
2018-12-13T21:32:04.957Z,10.40
2018-12-13T21:37:11.311Z,10.30
2018-12-13T21:42:16.239Z,10.30
2018-12-13T21:47:22.146Z,10.30
2018-12-13T21:52:28.693Z,10.30
2018-12-13T21:57:33.852Z,10.30
2018-12-13T22:02:39.089Z,10.20
2018-12-13T22:07:43.922Z,10.30
2018-12-13T22:12:49.139Z,10.20
2018-12-13T22:17:54.118Z,10.00
2018-12-13T22:22:59.695Z,9.90
2018-12-13T22:28:04.795Z,10.00
2018-12-13T22:33:10.626Z,9.90
2018-12-13T22:38:15.524Z,10.00
2018-12-13T22:43:22.157Z,10.10
2018-12-13T22:48:28.414Z,10.10
2018-12-13T22:53:33.835Z,9.90
2018-12-13T22:58:39.790Z,9.80
2018-12-13T23:03:44.704Z,9.70
2018-12-13T23:08:51.558Z,9.70
2018-12-13T23:13:58.370Z,9.70
2018-12-13T23:19:03.387Z,9.70
2018-12-13T23:24:09.703Z,9.70
2018-12-13T23:29:14.537Z,9.70
2018-12-13T23:34:20.544Z,10.00
2018-12-13T23:39:25.487Z,10.00
2018-12-13T23:44:30.878Z,10.10
2018-12-13T23:49:35.927Z,10.20
2018-12-13T23:54:42.148Z,10.30
2018-12-13T23:59:47.665Z,10.40
